sensor_id;sensor_type;location;lat;lon;timestamp;P1;durP1;ratioP1;P2;durP2;ratioP2
70967;SDS011;58629;48.808;8.820;2024-02-14T00:01:22;7.73;;;3.30;;
70967;SDS011;58629;48.808;8.820;2024-02-14T00:03:48;6.05;;;3.10;;
70967;SDS011;58629;48.808;8.820;2024-02-14T00:06:14;5.87;;;3.40;;
70967;SDS011;58629;48.808;8.820;2024-02-14T00:08:39;5.67;;;3.17;;
70967;SDS011;58629;48.808;8.820;2024-02-14T00:11:04;5.27;;;3.10;;
70967;SDS011;58629;48.808;8.820;2024-02-14T00:13:30;6.15;;;3.60;;
70967;SDS011;58629;48.808;8.820;2024-02-14T00:15:59;5.93;;;3.30;;
70967;SDS011;58629;48.808;8.820;2024-02-14T00:18:25;6.07;;;3.05;;
70967;SDS011;58629;48.808;8.820;2024-02-14T00:20:51;4.78;;;3.00;;
70967;SDS011;58629;48.808;8.820;2024-02-14T00:23:17;4.63;;;2.80;;
70967;SDS011;58629;48.808;8.820;2024-02-14T00:25:42;5.53;;;2.87;;
70967;SDS011;58629;48.808;8.820;2024-02-14T00:28:07;5.07;;;3.03;;
70967;SDS011;58629;48.808;8.820;2024-02-14T00:30:33;6.63;;;3.87;;
70967;SDS011;58629;48.808;8.820;2024-02-14T00:32:59;5.85;;;3.33;;
70967;SDS011;58629;48.808;8.820;2024-02-14T00:35:24;5.53;;;3.00;;
70967;SDS011;58629;48.808;8.820;2024-02-14T00:37:50;4.77;;;2.90;;
70967;SDS011;58629;48.808;8.820;2024-02-14T00:40:15;6.28;;;2.88;;
70967;SDS011;58629;48.808;8.820;2024-02-14T00:42:41;5.30;;;2.80;;
70967;SDS011;58629;48.808;8.820;2024-02-14T00:45:06;4.97;;;3.00;;
70967;SDS011;58629;48.808;8.820;2024-02-14T00:47:35;5.45;;;3.00;;
70967;SDS011;58629;48.808;8.820;2024-02-14T00:50:04;4.65;;;2.80;;
70967;SDS011;58629;48.808;8.820;2024-02-14T00:52:30;4.60;;;2.80;;
70967;SDS011;58629;48.808;8.820;2024-02-14T00:54:55;4.80;;;2.83;;
70967;SDS011;58629;48.808;8.820;2024-02-14T00:57:21;5.10;;;2.60;;
70967;SDS011;58629;48.808;8.820;2024-02-14T00:59:50;4.20;;;2.65;;
70967;SDS011;58629;48.808;8.820;2024-02-14T01:02:16;5.32;;;2.72;;
70967;SDS011;58629;48.808;8.820;2024-02-14T01:04:43;4.22;;;2.53;;
70967;SDS011;58629;48.808;8.820;2024-02-14T01:07:08;4.63;;;2.60;;
70967;SDS011;58629;48.808;8.820;2024-02-14T01:09:34;3.83;;;2.30;;
70967;SDS011;58629;48.808;8.820;2024-02-14T01:11:59;5.17;;;2.47;;
70967;SDS011;58629;48.808;8.820;2024-02-14T01:14:24;4.27;;;2.50;;
70967;SDS011;58629;48.808;8.820;2024-02-14T01:16:50;3.97;;;2.30;;
70967;SDS011;58629;48.808;8.820;2024-02-14T01:19:16;4.50;;;2.40;;
70967;SDS011;58629;48.808;8.820;2024-02-14T01:21:44;4.07;;;2.30;;
70967;SDS011;58629;48.808;8.820;2024-02-14T01:24:13;4.28;;;2.30;;
70967;SDS011;58629;48.808;8.820;2024-02-14T01:26:38;4.23;;;2.70;;
70967;SDS011;58629;48.808;8.820;2024-02-14T01:29:04;5.40;;;3.00;;
70967;SDS011;58629;48.808;8.820;2024-02-14T01:31:30;5.57;;;2.97;;
70967;SDS011;58629;48.808;8.820;2024-02-14T01:33:57;6.13;;;3.35;;
70967;SDS011;58629;48.808;8.820;2024-02-14T01:36:22;6.27;;;3.47;;
70967;SDS011;58629;48.808;8.820;2024-02-14T01:38:48;5.37;;;3.10;;
70967;SDS011;58629;48.808;8.820;2024-02-14T01:41:14;6.10;;;3.03;;
70967;SDS011;58629;48.808;8.820;2024-02-14T01:43:39;5.65;;;3.45;;
70967;SDS011;58629;48.808;8.820;2024-02-14T01:46:05;6.43;;;3.17;;
70967;SDS011;58629;48.808;8.820;2024-02-14T01:48:31;6.47;;;3.05;;
70967;SDS011;58629;48.808;8.820;2024-02-14T01:50:58;5.10;;;3.17;;
70967;SDS011;58629;48.808;8.820;2024-02-14T01:53:25;6.03;;;3.22;;
70967;SDS011;58629;48.808;8.820;2024-02-14T01:55:54;6.03;;;3.53;;
70967;SDS011;58629;48.808;8.820;2024-02-14T01:58:19;5.70;;;3.40;;
70967;SDS011;58629;48.808;8.820;2024-02-14T02:00:44;5.50;;;3.20;;
70967;SDS011;58629;48.808;8.820;2024-02-14T02:03:11;5.25;;;3.10;;
70967;SDS011;58629;48.808;8.820;2024-02-14T02:05:36;6.27;;;3.07;;
70967;SDS011;58629;48.808;8.820;2024-02-14T02:08:02;5.10;;;2.83;;
70967;SDS011;58629;48.808;8.820;2024-02-14T02:10:27;7.50;;;3.47;;
70967;SDS011;58629;48.808;8.820;2024-02-14T02:12:59;6.18;;;3.00;;
70967;SDS011;58629;48.808;8.820;2024-02-14T02:15:25;6.15;;;2.90;;
70967;SDS011;58629;48.808;8.820;2024-02-14T02:17:53;5.32;;;3.15;;
70967;SDS011;58629;48.808;8.820;2024-02-14T02:20:19;5.07;;;3.20;;
70967;SDS011;58629;48.808;8.820;2024-02-14T02:22:48;5.68;;;3.28;;
70967;SDS011;58629;48.808;8.820;2024-02-14T02:25:13;5.43;;;3.20;;
70967;SDS011;58629;48.808;8.820;2024-02-14T02:27:39;6.32;;;3.85;;
70967;SDS011;58629;48.808;8.820;2024-02-14T02:30:05;7.53;;;3.93;;
70967;SDS011;58629;48.808;8.820;2024-02-14T02:32:31;6.72;;;3.78;;
70967;SDS011;58629;48.808;8.820;2024-02-14T02:34:57;8.10;;;3.97;;
70967;SDS011;58629;48.808;8.820;2024-02-14T02:37:23;8.38;;;4.30;;
70967;SDS011;58629;48.808;8.820;2024-02-14T02:39:48;8.73;;;3.97;;
70967;SDS011;58629;48.808;8.820;2024-02-14T02:42:14;6.93;;;3.80;;
70967;SDS011;58629;48.808;8.820;2024-02-14T02:44:39;6.47;;;3.60;;
70967;SDS011;58629;48.808;8.820;2024-02-14T02:47:04;5.73;;;3.60;;
70967;SDS011;58629;48.808;8.820;2024-02-14T02:49:30;5.90;;;3.63;;
70967;SDS011;58629;48.808;8.820;2024-02-14T02:51:55;5.13;;;3.00;;
70967;SDS011;58629;48.808;8.820;2024-02-14T02:54:21;9.68;;;4.32;;
70967;SDS011;58629;48.808;8.820;2024-02-14T02:56:48;8.37;;;4.03;;
70967;SDS011;58629;48.808;8.820;2024-02-14T02:59:14;7.40;;;4.00;;
70967;SDS011;58629;48.808;8.820;2024-02-14T03:01:41;7.28;;;4.00;;
70967;SDS011;58629;48.808;8.820;2024-02-14T03:04:07;6.47;;;3.60;;
70967;SDS011;58629;48.808;8.820;2024-02-14T03:06:33;5.63;;;3.13;;
70967;SDS011;58629;48.808;8.820;2024-02-14T03:08:58;7.30;;;3.97;;
70967;SDS011;58629;48.808;8.820;2024-02-14T03:11:24;6.10;;;3.50;;
70967;SDS011;58629;48.808;8.820;2024-02-14T03:13:51;6.50;;;3.53;;
70967;SDS011;58629;48.808;8.820;2024-02-14T03:16:17;6.43;;;3.33;;
70967;SDS011;58629;48.808;8.820;2024-02-14T03:18:42;5.10;;;2.97;;
70967;SDS011;58629;48.808;8.820;2024-02-14T03:21:08;4.78;;;2.50;;
70967;SDS011;58629;48.808;8.820;2024-02-14T03:23:33;5.20;;;2.70;;
70967;SDS011;58629;48.808;8.820;2024-02-14T03:25:59;4.97;;;2.90;;
70967;SDS011;58629;48.808;8.820;2024-02-14T03:28:24;5.23;;;2.83;;
70967;SDS011;58629;48.808;8.820;2024-02-14T03:30:50;5.28;;;3.10;;
70967;SDS011;58629;48.808;8.820;2024-02-14T03:33:15;4.83;;;2.87;;
70967;SDS011;58629;48.808;8.820;2024-02-14T03:35:40;5.00;;;2.83;;
70967;SDS011;58629;48.808;8.820;2024-02-14T03:38:06;6.40;;;2.80;;
70967;SDS011;58629;48.808;8.820;2024-02-14T03:40:33;5.10;;;2.80;;
70967;SDS011;58629;48.808;8.820;2024-02-14T03:43:00;5.72;;;2.72;;
70967;SDS011;58629;48.808;8.820;2024-02-14T03:45:26;4.80;;;2.60;;
70967;SDS011;58629;48.808;8.820;2024-02-14T03:47:54;5.05;;;2.53;;
70967;SDS011;58629;48.808;8.820;2024-02-14T03:50:20;5.22;;;3.00;;
70967;SDS011;58629;48.808;8.820;2024-02-14T03:52:45;5.87;;;3.10;;
70967;SDS011;58629;48.808;8.820;2024-02-14T03:55:13;4.60;;;2.97;;
70967;SDS011;58629;48.808;8.820;2024-02-14T03:57:39;4.15;;;2.50;;
70967;SDS011;58629;48.808;8.820;2024-02-14T04:00:04;4.53;;;2.77;;
70967;SDS011;58629;48.808;8.820;2024-02-14T04:02:34;4.72;;;2.70;;
70967;SDS011;58629;48.808;8.820;2024-02-14T04:05:00;5.30;;;2.95;;
70967;SDS011;58629;48.808;8.820;2024-02-14T04:07:25;5.60;;;2.97;;
70967;SDS011;58629;48.808;8.820;2024-02-14T04:09:51;5.93;;;3.00;;
70967;SDS011;58629;48.808;8.820;2024-02-14T04:12:16;4.63;;;2.77;;
70967;SDS011;58629;48.808;8.820;2024-02-14T04:14:41;4.73;;;2.73;;
70967;SDS011;58629;48.808;8.820;2024-02-14T04:17:07;4.43;;;2.70;;
70967;SDS011;58629;48.808;8.820;2024-02-14T04:19:33;5.57;;;3.00;;
70967;SDS011;58629;48.808;8.820;2024-02-14T04:21:58;5.35;;;3.03;;
70967;SDS011;58629;48.808;8.820;2024-02-14T04:24:23;6.00;;;2.90;;
70967;SDS011;58629;48.808;8.820;2024-02-14T04:26:49;5.27;;;2.80;;
70967;SDS011;58629;48.808;8.820;2024-02-14T04:29:14;6.00;;;3.30;;
70967;SDS011;58629;48.808;8.820;2024-02-14T04:31:40;5.88;;;3.10;;
70967;SDS011;58629;48.808;8.820;2024-02-14T04:34:05;6.63;;;3.47;;
70967;SDS011;58629;48.808;8.820;2024-02-14T04:36:33;6.30;;;3.33;;
70967;SDS011;58629;48.808;8.820;2024-02-14T04:39:00;5.90;;;3.10;;
70967;SDS011;58629;48.808;8.820;2024-02-14T04:41:26;7.30;;;3.28;;
70967;SDS011;58629;48.808;8.820;2024-02-14T04:43:51;5.93;;;3.20;;
70967;SDS011;58629;48.808;8.820;2024-02-14T04:46:16;5.83;;;2.90;;
70967;SDS011;58629;48.808;8.820;2024-02-14T04:48:42;5.10;;;2.70;;
70967;SDS011;58629;48.808;8.820;2024-02-14T04:51:07;4.68;;;2.83;;
70967;SDS011;58629;48.808;8.820;2024-02-14T04:53:33;7.65;;;3.55;;
70967;SDS011;58629;48.808;8.820;2024-02-14T04:55:58;5.00;;;2.70;;
70967;SDS011;58629;48.808;8.820;2024-02-14T04:58:24;6.17;;;3.30;;
70967;SDS011;58629;48.808;8.820;2024-02-14T05:00:49;3.78;;;2.72;;
70967;SDS011;58629;48.808;8.820;2024-02-14T05:03:14;4.60;;;2.60;;
70967;SDS011;58629;48.808;8.820;2024-02-14T05:05:40;5.03;;;2.67;;
70967;SDS011;58629;48.808;8.820;2024-02-14T05:08:06;4.82;;;2.63;;
70967;SDS011;58629;48.808;8.820;2024-02-14T05:10:32;4.23;;;2.60;;
70967;SDS011;58629;48.808;8.820;2024-02-14T05:12:57;5.38;;;2.65;;
70967;SDS011;58629;48.808;8.820;2024-02-14T05:15:23;4.25;;;2.35;;
70967;SDS011;58629;48.808;8.820;2024-02-14T05:17:48;4.40;;;2.60;;
70967;SDS011;58629;48.808;8.820;2024-02-14T05:20:15;4.00;;;2.30;;
70967;SDS011;58629;48.808;8.820;2024-02-14T05:22:41;5.45;;;2.40;;
70967;SDS011;58629;48.808;8.820;2024-02-14T05:25:06;4.77;;;2.77;;
70967;SDS011;58629;48.808;8.820;2024-02-14T05:27:35;6.00;;;2.75;;
70967;SDS011;58629;48.808;8.820;2024-02-14T05:30:02;3.67;;;2.38;;
70967;SDS011;58629;48.808;8.820;2024-02-14T05:32:30;4.63;;;2.30;;
70967;SDS011;58629;48.808;8.820;2024-02-14T05:34:56;5.88;;;2.58;;
70967;SDS011;58629;48.808;8.820;2024-02-14T05:37:21;4.93;;;2.70;;
70967;SDS011;58629;48.808;8.820;2024-02-14T05:39:46;6.23;;;3.10;;
70967;SDS011;58629;48.808;8.820;2024-02-14T05:42:12;4.60;;;2.70;;
70967;SDS011;58629;48.808;8.820;2024-02-14T05:44:37;5.70;;;2.70;;
70967;SDS011;58629;48.808;8.820;2024-02-14T05:47:02;4.67;;;2.50;;
70967;SDS011;58629;48.808;8.820;2024-02-14T05:49:28;5.07;;;2.30;;
70967;SDS011;58629;48.808;8.820;2024-02-14T05:51:53;5.27;;;2.43;;
70967;SDS011;58629;48.808;8.820;2024-02-14T05:54:19;4.30;;;2.37;;
70967;SDS011;58629;48.808;8.820;2024-02-14T05:56:44;4.85;;;2.35;;
70967;SDS011;58629;48.808;8.820;2024-02-14T05:59:10;4.63;;;2.38;;
70967;SDS011;58629;48.808;8.820;2024-02-14T06:01:36;4.90;;;2.70;;
70967;SDS011;58629;48.808;8.820;2024-02-14T06:04:02;5.80;;;3.20;;
70967;SDS011;58629;48.808;8.820;2024-02-14T06:06:27;7.97;;;3.65;;
70967;SDS011;58629;48.808;8.820;2024-02-14T06:08:52;6.20;;;3.10;;
70967;SDS011;58629;48.808;8.820;2024-02-14T06:11:18;6.10;;;3.20;;
70967;SDS011;58629;48.808;8.820;2024-02-14T06:13:46;6.53;;;3.00;;
70967;SDS011;58629;48.808;8.820;2024-02-14T06:16:12;4.82;;;2.70;;
70967;SDS011;58629;48.808;8.820;2024-02-14T06:18:37;5.43;;;2.70;;
70967;SDS011;58629;48.808;8.820;2024-02-14T06:21:04;5.70;;;3.40;;
70967;SDS011;58629;48.808;8.820;2024-02-14T06:23:29;6.43;;;3.17;;
70967;SDS011;58629;48.808;8.820;2024-02-14T06:25:55;5.90;;;2.90;;
70967;SDS011;58629;48.808;8.820;2024-02-14T06:28:21;6.43;;;3.03;;
70967;SDS011;58629;48.808;8.820;2024-02-14T06:30:46;5.80;;;2.80;;
70967;SDS011;58629;48.808;8.820;2024-02-14T06:33:12;6.57;;;3.28;;
70967;SDS011;58629;48.808;8.820;2024-02-14T06:35:37;6.97;;;3.07;;
70967;SDS011;58629;48.808;8.820;2024-02-14T06:38:02;7.07;;;2.90;;
70967;SDS011;58629;48.808;8.820;2024-02-14T06:40:28;5.87;;;2.87;;
70967;SDS011;58629;48.808;8.820;2024-02-14T06:42:54;4.20;;;2.47;;
70967;SDS011;58629;48.808;8.820;2024-02-14T06:45:20;5.10;;;2.42;;
70967;SDS011;58629;48.808;8.820;2024-02-14T06:47:45;4.80;;;2.47;;
70967;SDS011;58629;48.808;8.820;2024-02-14T06:50:11;4.70;;;2.37;;
70967;SDS011;58629;48.808;8.820;2024-02-14T06:52:36;4.60;;;2.53;;
70967;SDS011;58629;48.808;8.820;2024-02-14T06:55:02;6.07;;;2.30;;
70967;SDS011;58629;48.808;8.820;2024-02-14T06:57:28;4.82;;;2.47;;
70967;SDS011;58629;48.808;8.820;2024-02-14T06:59:54;4.20;;;2.47;;
70967;SDS011;58629;48.808;8.820;2024-02-14T07:02:19;4.63;;;2.57;;
70967;SDS011;58629;48.808;8.820;2024-02-14T07:04:46;4.05;;;2.50;;
70967;SDS011;58629;48.808;8.820;2024-02-14T07:07:11;4.63;;;2.30;;
70967;SDS011;58629;48.808;8.820;2024-02-14T07:09:36;4.10;;;2.30;;
70967;SDS011;58629;48.808;8.820;2024-02-14T07:12:03;3.53;;;2.20;;
70967;SDS011;58629;48.808;8.820;2024-02-14T07:14:29;3.60;;;2.15;;
70967;SDS011;58629;48.808;8.820;2024-02-14T07:16:54;3.80;;;1.90;;
70967;SDS011;58629;48.808;8.820;2024-02-14T07:19:20;4.00;;;1.90;;
70967;SDS011;58629;48.808;8.820;2024-02-14T07:21:45;3.23;;;1.73;;
70967;SDS011;58629;48.808;8.820;2024-02-14T07:24:10;3.17;;;1.60;;
70967;SDS011;58629;48.808;8.820;2024-02-14T07:26:36;3.13;;;1.50;;
70967;SDS011;58629;48.808;8.820;2024-02-14T07:29:01;3.40;;;1.90;;
70967;SDS011;58629;48.808;8.820;2024-02-14T07:31:29;3.20;;;1.60;;
70967;SDS011;58629;48.808;8.820;2024-02-14T07:33:58;4.00;;;1.70;;
70967;SDS011;58629;48.808;8.820;2024-02-14T07:36:24;3.38;;;1.85;;
70967;SDS011;58629;48.808;8.820;2024-02-14T07:38:50;3.20;;;1.77;;
70967;SDS011;58629;48.808;8.820;2024-02-14T07:41:15;3.67;;;2.10;;
70967;SDS011;58629;48.808;8.820;2024-02-14T07:43:40;5.27;;;2.03;;
70967;SDS011;58629;48.808;8.820;2024-02-14T07:46:06;5.87;;;2.50;;
70967;SDS011;58629;48.808;8.820;2024-02-14T07:48:32;4.45;;;2.50;;
70967;SDS011;58629;48.808;8.820;2024-02-14T07:50:57;5.47;;;2.50;;
70967;SDS011;58629;48.808;8.820;2024-02-14T07:53:24;5.57;;;3.10;;
70967;SDS011;58629;48.808;8.820;2024-02-14T07:55:49;6.43;;;3.05;;
70967;SDS011;58629;48.808;8.820;2024-02-14T07:58:15;6.23;;;3.10;;
70967;SDS011;58629;48.808;8.820;2024-02-14T08:00:40;4.93;;;2.90;;
70967;SDS011;58629;48.808;8.820;2024-02-14T08:03:05;4.53;;;2.20;;
70967;SDS011;58629;48.808;8.820;2024-02-14T08:05:31;4.00;;;2.38;;
70967;SDS011;58629;48.808;8.820;2024-02-14T08:07:56;4.47;;;2.30;;
70967;SDS011;58629;48.808;8.820;2024-02-14T08:10:22;4.63;;;2.50;;
70967;SDS011;58629;48.808;8.820;2024-02-14T08:12:47;5.70;;;2.47;;
70967;SDS011;58629;48.808;8.820;2024-02-14T08:15:12;6.70;;;3.63;;
70967;SDS011;58629;48.808;8.820;2024-02-14T08:17:38;6.93;;;3.30;;
70967;SDS011;58629;48.808;8.820;2024-02-14T08:20:03;10.27;;;4.32;;
70967;SDS011;58629;48.808;8.820;2024-02-14T08:22:29;12.20;;;6.10;;
70967;SDS011;58629;48.808;8.820;2024-02-14T08:24:55;13.35;;;6.18;;
70967;SDS011;58629;48.808;8.820;2024-02-14T08:27:21;7.77;;;4.33;;
70967;SDS011;58629;48.808;8.820;2024-02-14T08:29:47;7.07;;;3.33;;
70967;SDS011;58629;48.808;8.820;2024-02-14T08:32:12;5.53;;;3.10;;
70967;SDS011;58629;48.808;8.820;2024-02-14T08:34:37;4.97;;;2.60;;
70967;SDS011;58629;48.808;8.820;2024-02-14T08:37:03;5.63;;;2.60;;
70967;SDS011;58629;48.808;8.820;2024-02-14T08:39:28;3.92;;;2.10;;
70967;SDS011;58629;48.808;8.820;2024-02-14T08:41:54;3.83;;;2.33;;
70967;SDS011;58629;48.808;8.820;2024-02-14T08:44:19;3.33;;;1.90;;
70967;SDS011;58629;48.808;8.820;2024-02-14T08:46:45;4.33;;;1.87;;
70967;SDS011;58629;48.808;8.820;2024-02-14T08:49:13;3.88;;;1.90;;
70967;SDS011;58629;48.808;8.820;2024-02-14T08:51:39;3.42;;;1.77;;
70967;SDS011;58629;48.808;8.820;2024-02-14T08:54:04;4.47;;;1.67;;
70967;SDS011;58629;48.808;8.820;2024-02-14T08:56:34;3.60;;;1.60;;
70967;SDS011;58629;48.808;8.820;2024-02-14T08:59:00;3.13;;;1.60;;
70967;SDS011;58629;48.808;8.820;2024-02-14T09:01:27;4.20;;;1.80;;
70967;SDS011;58629;48.808;8.820;2024-02-14T09:03:53;2.67;;;1.80;;
70967;SDS011;58629;48.808;8.820;2024-02-14T09:06:19;2.63;;;1.47;;
70967;SDS011;58629;48.808;8.820;2024-02-14T09:08:44;2.90;;;1.90;;
70967;SDS011;58629;48.808;8.820;2024-02-14T09:11:09;3.88;;;1.77;;
70967;SDS011;58629;48.808;8.820;2024-02-14T09:13:35;3.40;;;2.17;;
70967;SDS011;58629;48.808;8.820;2024-02-14T09:16:00;3.90;;;2.10;;
70967;SDS011;58629;48.808;8.820;2024-02-14T09:18:26;4.03;;;1.97;;
70967;SDS011;58629;48.808;8.820;2024-02-14T09:20:52;4.50;;;1.90;;
70967;SDS011;58629;48.808;8.820;2024-02-14T09:23:17;3.13;;;1.80;;
70967;SDS011;58629;48.808;8.820;2024-02-14T09:25:47;5.30;;;2.38;;
70967;SDS011;58629;48.808;8.820;2024-02-14T09:28:13;6.38;;;2.33;;
70967;SDS011;58629;48.808;8.820;2024-02-14T09:30:39;7.53;;;2.50;;
70967;SDS011;58629;48.808;8.820;2024-02-14T09:33:04;4.22;;;2.10;;
70967;SDS011;58629;48.808;8.820;2024-02-14T09:35:30;3.83;;;1.90;;
70967;SDS011;58629;48.808;8.820;2024-02-14T09:37:55;7.30;;;2.30;;
70967;SDS011;58629;48.808;8.820;2024-02-14T09:40:21;3.70;;;1.98;;
70967;SDS011;58629;48.808;8.820;2024-02-14T09:42:56;2.60;;;1.40;;
70967;SDS011;58629;48.808;8.820;2024-02-14T09:45:26;4.40;;;1.30;;
70967;SDS011;58629;48.808;8.820;2024-02-14T09:47:52;2.17;;;1.40;;
70967;SDS011;58629;48.808;8.820;2024-02-14T09:50:19;3.40;;;1.23;;
70967;SDS011;58629;48.808;8.820;2024-02-14T09:52:46;2.30;;;1.13;;
70967;SDS011;58629;48.808;8.820;2024-02-14T09:55:13;1.98;;;1.15;;
70967;SDS011;58629;48.808;8.820;2024-02-14T09:57:41;2.10;;;1.20;;
70967;SDS011;58629;48.808;8.820;2024-02-14T10:00:09;2.78;;;1.27;;
70967;SDS011;58629;48.808;8.820;2024-02-14T10:02:35;4.87;;;1.47;;
70967;SDS011;58629;48.808;8.820;2024-02-14T10:05:01;3.08;;;1.05;;
70967;SDS011;58629;48.808;8.820;2024-02-14T10:07:26;2.13;;;1.00;;
70967;SDS011;58629;48.808;8.820;2024-02-14T10:09:52;2.28;;;0.90;;
70967;SDS011;58629;48.808;8.820;2024-02-14T10:12:19;1.15;;;0.70;;
70967;SDS011;58629;48.808;8.820;2024-02-14T10:14:44;3.27;;;0.90;;
70967;SDS011;58629;48.808;8.820;2024-02-14T10:17:17;2.92;;;1.27;;
70967;SDS011;58629;48.808;8.820;2024-02-14T10:19:54;1.35;;;1.00;;
70967;SDS011;58629;48.808;8.820;2024-02-14T10:22:36;1.63;;;0.70;;
70967;SDS011;58629;48.808;8.820;2024-02-14T10:25:03;1.07;;;0.47;;
70967;SDS011;58629;48.808;8.820;2024-02-14T10:27:34;1.08;;;0.40;;
70967;SDS011;58629;48.808;8.820;2024-02-14T10:30:04;1.08;;;0.50;;
70967;SDS011;58629;48.808;8.820;2024-02-14T10:32:34;0.82;;;0.40;;
70967;SDS011;58629;48.808;8.820;2024-02-14T10:34:59;0.70;;;0.40;;
70967;SDS011;58629;48.808;8.820;2024-02-14T10:37:26;1.10;;;0.57;;
70967;SDS011;58629;48.808;8.820;2024-02-14T10:39:55;2.63;;;0.98;;
70967;SDS011;58629;48.808;8.820;2024-02-14T10:42:23;0.40;;;0.23;;
70967;SDS011;58629;48.808;8.820;2024-02-14T10:44:48;0.73;;;0.40;;
70967;SDS011;58629;48.808;8.820;2024-02-14T10:47:14;0.50;;;0.33;;
70967;SDS011;58629;48.808;8.820;2024-02-14T10:49:44;1.27;;;0.32;;
70967;SDS011;58629;48.808;8.820;2024-02-14T10:52:11;4.78;;;0.60;;
70967;SDS011;58629;48.808;8.820;2024-02-14T10:54:40;0.63;;;0.30;;
70967;SDS011;58629;48.808;8.820;2024-02-14T10:57:08;0.70;;;0.40;;
70967;SDS011;58629;48.808;8.820;2024-02-14T10:59:37;1.07;;;0.40;;
70967;SDS011;58629;48.808;8.820;2024-02-14T11:02:07;1.15;;;0.47;;
70967;SDS011;58629;48.808;8.820;2024-02-14T11:04:32;0.85;;;0.40;;
70967;SDS011;58629;48.808;8.820;2024-02-14T11:06:58;0.80;;;0.30;;
70967;SDS011;58629;48.808;8.820;2024-02-14T11:09:33;0.60;;;0.40;;
70967;SDS011;58629;48.808;8.820;2024-02-14T11:12:02;0.40;;;0.28;;
70967;SDS011;58629;48.808;8.820;2024-02-14T11:14:31;0.87;;;0.37;;
70967;SDS011;58629;48.808;8.820;2024-02-14T11:17:03;0.73;;;0.30;;
70967;SDS011;58629;48.808;8.820;2024-02-14T11:19:32;0.57;;;0.40;;
70967;SDS011;58629;48.808;8.820;2024-02-14T11:22:09;0.10;;;0.10;;
70967;SDS011;58629;48.808;8.820;2024-02-14T11:24:47;0.10;;;0.08;;
70967;SDS011;58629;48.808;8.820;2024-02-14T11:27:13;0.00;;;0.00;;
70967;SDS011;58629;48.808;8.820;2024-02-14T11:29:40;0.60;;;0.40;;
70967;SDS011;58629;48.808;8.820;2024-02-14T11:32:06;0.60;;;0.10;;
70967;SDS011;58629;48.808;8.820;2024-02-14T11:34:34;0.55;;;0.08;;
70967;SDS011;58629;48.808;8.820;2024-02-14T11:37:00;0.10;;;0.10;;
70967;SDS011;58629;48.808;8.820;2024-02-14T11:39:25;0.47;;;0.10;;
70967;SDS011;58629;48.808;8.820;2024-02-14T11:41:51;0.93;;;0.10;;
70967;SDS011;58629;48.808;8.820;2024-02-14T11:44:16;0.77;;;0.10;;
70967;SDS011;58629;48.808;8.820;2024-02-14T11:46:44;0.85;;;0.10;;
70967;SDS011;58629;48.808;8.820;2024-02-14T11:49:11;0.93;;;0.20;;
70967;SDS011;58629;48.808;8.820;2024-02-14T11:51:36;0.30;;;0.10;;
70967;SDS011;58629;48.808;8.820;2024-02-14T11:54:02;0.30;;;0.10;;
70967;SDS011;58629;48.808;8.820;2024-02-14T11:56:35;0.20;;;0.10;;
70967;SDS011;58629;48.808;8.820;2024-02-14T11:59:01;0.25;;;0.03;;
70967;SDS011;58629;48.808;8.820;2024-02-14T12:01:31;0.17;;;0.00;;
70967;SDS011;58629;48.808;8.820;2024-02-14T12:03:58;0.35;;;0.20;;
70967;SDS011;58629;48.808;8.820;2024-02-14T12:06:43;1.07;;;0.10;;
70967;SDS011;58629;48.808;8.820;2024-02-14T12:09:09;0.30;;;0.03;;
70967;SDS011;58629;48.808;8.820;2024-02-14T12:11:38;0.77;;;0.10;;
70967;SDS011;58629;48.808;8.820;2024-02-14T12:14:07;0.50;;;0.10;;
70967;SDS011;58629;48.808;8.820;2024-02-14T12:16:34;0.30;;;0.10;;
70967;SDS011;58629;48.808;8.820;2024-02-14T12:19:08;0.30;;;0.00;;
70967;SDS011;58629;48.808;8.820;2024-02-14T12:21:35;1.13;;;0.10;;
70967;SDS011;58629;48.808;8.820;2024-02-14T12:24:07;0.30;;;0.10;;
70967;SDS011;58629;48.808;8.820;2024-02-14T12:26:37;0.35;;;0.10;;
70967;SDS011;58629;48.808;8.820;2024-02-14T12:29:03;1.07;;;0.10;;
70967;SDS011;58629;48.808;8.820;2024-02-14T12:31:30;1.95;;;0.38;;
70967;SDS011;58629;48.808;8.820;2024-02-14T12:33:58;1.08;;;0.10;;
70967;SDS011;58629;48.808;8.820;2024-02-14T12:36:26;0.20;;;0.00;;
70967;SDS011;58629;48.808;8.820;2024-02-14T12:38:53;0.08;;;0.00;;
70967;SDS011;58629;48.808;8.820;2024-02-14T12:41:19;0.20;;;0.00;;
70967;SDS011;58629;48.808;8.820;2024-02-14T12:43:44;0.10;;;0.00;;
70967;SDS011;58629;48.808;8.820;2024-02-14T12:46:10;0.00;;;0.00;;
70967;SDS011;58629;48.808;8.820;2024-02-14T12:48:35;0.00;;;0.00;;
70967;SDS011;58629;48.808;8.820;2024-02-14T12:51:01;0.70;;;0.10;;
70967;SDS011;58629;48.808;8.820;2024-02-14T12:53:26;0.00;;;0.00;;
70967;SDS011;58629;48.808;8.820;2024-02-14T12:55:51;0.00;;;0.00;;
70967;SDS011;58629;48.808;8.820;2024-02-14T12:58:17;0.00;;;0.00;;
70967;SDS011;58629;48.808;8.820;2024-02-14T13:00:43;0.28;;;0.00;;
70967;SDS011;58629;48.808;8.820;2024-02-14T13:03:09;0.00;;;0.00;;
70967;SDS011;58629;48.808;8.820;2024-02-14T13:05:36;0.10;;;0.00;;
70967;SDS011;58629;48.808;8.820;2024-02-14T13:08:01;0.10;;;0.00;;
70967;SDS011;58629;48.808;8.820;2024-02-14T13:10:27;0.10;;;0.00;;
70967;SDS011;58629;48.808;8.820;2024-02-14T13:12:52;0.00;;;0.00;;
70967;SDS011;58629;48.808;8.820;2024-02-14T13:15:18;0.10;;;0.00;;
70967;SDS011;58629;48.808;8.820;2024-02-14T13:17:43;0.00;;;0.00;;
70967;SDS011;58629;48.808;8.820;2024-02-14T13:20:10;0.00;;;0.00;;
70967;SDS011;58629;48.808;8.820;2024-02-14T13:22:36;0.00;;;0.00;;
70967;SDS011;58629;48.808;8.820;2024-02-14T13:25:01;0.52;;;0.00;;
70967;SDS011;58629;48.808;8.820;2024-02-14T13:27:27;0.00;;;0.00;;
70967;SDS011;58629;48.808;8.820;2024-02-14T13:29:53;0.57;;;0.00;;
70967;SDS011;58629;48.808;8.820;2024-02-14T13:32:18;0.13;;;0.00;;
70967;SDS011;58629;48.808;8.820;2024-02-14T13:34:44;0.00;;;0.00;;
70967;SDS011;58629;48.808;8.820;2024-02-14T13:37:09;0.10;;;0.00;;
70967;SDS011;58629;48.808;8.820;2024-02-14T13:39:35;0.00;;;0.00;;
70967;SDS011;58629;48.808;8.820;2024-02-14T13:42:00;0.00;;;0.00;;
70967;SDS011;58629;48.808;8.820;2024-02-14T13:44:26;0.10;;;0.00;;
70967;SDS011;58629;48.808;8.820;2024-02-14T13:46:52;0.10;;;0.00;;
70967;SDS011;58629;48.808;8.820;2024-02-14T13:49:20;0.10;;;0.00;;
70967;SDS011;58629;48.808;8.820;2024-02-14T13:51:49;0.20;;;0.20;;
70967;SDS011;58629;48.808;8.820;2024-02-14T13:54:16;0.10;;;0.08;;
70967;SDS011;58629;48.808;8.820;2024-02-14T13:56:41;0.10;;;0.00;;
70967;SDS011;58629;48.808;8.820;2024-02-14T13:59:07;0.17;;;0.00;;
70967;SDS011;58629;48.808;8.820;2024-02-14T14:01:32;0.20;;;0.10;;
70967;SDS011;58629;48.808;8.820;2024-02-14T14:03:58;0.30;;;0.00;;
70967;SDS011;58629;48.808;8.820;2024-02-14T14:06:23;0.10;;;0.00;;
70967;SDS011;58629;48.808;8.820;2024-02-14T14:08:49;0.30;;;0.10;;
70967;SDS011;58629;48.808;8.820;2024-02-14T14:11:15;0.10;;;0.00;;
70967;SDS011;58629;48.808;8.820;2024-02-14T14:13:40;0.00;;;0.00;;
70967;SDS011;58629;48.808;8.820;2024-02-14T14:16:05;0.10;;;0.00;;
70967;SDS011;58629;48.808;8.820;2024-02-14T14:18:31;0.10;;;0.00;;
70967;SDS011;58629;48.808;8.820;2024-02-14T14:20:56;0.22;;;0.00;;
70967;SDS011;58629;48.808;8.820;2024-02-14T14:23:22;0.10;;;0.10;;
70967;SDS011;58629;48.808;8.820;2024-02-14T14:25:48;0.10;;;0.00;;
70967;SDS011;58629;48.808;8.820;2024-02-14T14:28:13;0.10;;;0.00;;
70967;SDS011;58629;48.808;8.820;2024-02-14T14:30:39;0.50;;;0.00;;
70967;SDS011;58629;48.808;8.820;2024-02-14T14:33:05;0.50;;;0.10;;
70967;SDS011;58629;48.808;8.820;2024-02-14T14:35:33;0.50;;;0.20;;
70967;SDS011;58629;48.808;8.820;2024-02-14T14:38:04;1.07;;;0.10;;
70967;SDS011;58629;48.808;8.820;2024-02-14T14:40:29;0.35;;;0.10;;
70967;SDS011;58629;48.808;8.820;2024-02-14T14:42:55;1.20;;;0.00;;